Time;durP1;ratioP1;P1;durP2;ratioP2;P2;SDS_P1;SDS_P2;PMS_P1;PMS_P2;Temp;Humidity;BMP_temperature;BMP_pressure;BME280_temperature;BME280_humidity;BME280_pressure;Samples;Min_cycle;Max_cycle;Signal;HPM_P1;HPM_P2
2021/06/17 21:29:18;;;;;;;17.00;14.35;;;;;;;24.61;59.71;98583.81;5025825;27;20440;-65
2021/06/17 21:31:45;;;;;;;17.40;14.32;;;;;;;24.78;59.06;98597.13;5028249;28;20040;-65
2021/06/17 21:34:10;;;;;;;15.88;13.68;;;;;;;24.83;59.18;98599.91;5024030;28;20056;-65
2021/06/17 21:36:35;;;;;;;14.70;13.20;;;;;;;24.70;59.17;98575.19;5014678;28;20025;-66
2021/06/17 21:39:01;;;;;;;15.20;13.60;;;;;;;24.91;58.89;98608.28;5029647;28;20472;-66
2021/06/17 21:41:27;;;;;;;14.48;12.90;;;;;;;24.96;58.90;98610.22;5030858;28;20025;-65
2021/06/17 21:43:53;;;;;;;15.00;13.50;;;;;;;24.86;58.42;98589.59;5033191;28;20108;-65
2021/06/17 21:46:18;;;;;;;14.63;13.23;;;;;;;25.01;58.55;98599.69;5027315;28;20509;-65
2021/06/17 21:48:44;;;;;;;15.45;13.65;;;;;;;24.93;58.81;98616.84;5033335;28;20048;-66
2021/06/17 21:51:09;;;;;;;14.38;12.88;;;;;;;24.83;58.94;98615.84;5035804;28;20033;-66
2021/06/17 21:53:35;;;;;;;15.02;13.50;;;;;;;24.76;59.95;98629.28;5033702;28;20435;-65
2021/06/17 21:56:00;;;;;;;15.68;13.73;;;;;;;24.74;60.22;98624.19;5050614;28;20086;-66
2021/06/17 21:58:26;;;;;;;15.00;13.40;;;;;;;24.81;59.60;98625.91;5035364;28;20527;-65
2021/06/17 22:00:52;;;;;;;14.95;13.45;;;;;;;24.78;59.81;98619.22;5031511;28;20155;-67
2021/06/17 22:03:17;;;;;;;15.38;13.77;;;;;;;24.65;59.66;98614.97;5035026;28;20029;-65
2021/06/17 22:05:43;;;;;;;16.48;14.65;;;;;;;24.28;60.97;98617.94;5025601;28;20072;-65
2021/06/17 22:08:08;;;;;;;18.38;14.23;;;;;;;24.36;60.69;98609.59;5035581;28;20037;-66
2021/06/17 22:10:34;;;;;;;15.80;14.10;;;;;;;24.45;60.71;98607.38;5038207;28;20788;-65
2021/06/17 22:12:59;;;;;;;15.93;14.43;;;;;;;24.50;60.72;98609.34;5031454;28;20037;-65
2021/06/17 22:15:25;;;;;;;16.17;14.40;;;;;;;24.53;60.60;98609.72;5037211;28;20029;-67
2021/06/17 22:17:50;;;;;;;15.15;13.75;;;;;;;24.59;60.41;98607.13;5036161;28;20036;-65
2021/06/17 22:20:16;;;;;;;15.63;13.85;;;;;;;24.65;60.25;98611.50;5035657;28;20878;-65
2021/06/17 22:22:43;;;;;;;15.35;13.63;;;;;;;24.55;60.23;98594.34;5037156;28;20037;-66
2021/06/17 22:25:09;;;;;;;15.15;13.30;;;;;;;24.61;60.70;98618.34;5034082;28;20044;-65
2021/06/17 22:27:35;;;;;;;15.65;14.18;;;;;;;24.53;60.42;98622.16;5029775;28;20115;-66
2021/06/17 22:30:02;;;;;;;15.13;13.57;;;;;;;24.33;60.47;98618.03;5043190;28;20487;-65
2021/06/17 22:32:28;;;;;;;13.85;12.45;;;;;;;24.27;59.48;98626.94;5036673;28;20033;-66
2021/06/17 22:34:54;;;;;;;14.10;12.57;;;;;;;24.21;59.52;98601.31;5055097;28;20056;-66
2021/06/17 22:37:20;;;;;;;13.80;12.48;;;;;;;24.36;59.48;98614.09;5038235;28;20084;-66
2021/06/17 22:39:46;;;;;;;13.85;12.55;;;;;;;24.41;59.77;98624.84;5031265;28;20079;-65
2021/06/17 22:42:11;;;;;;;15.10;12.98;;;;;;;24.50;59.28;98620.78;5036577;28;20029;-66
2021/06/17 22:44:37;;;;;;;13.07;11.77;;;;;;;24.49;59.09;98621.78;5027248;28;20037;-65
2021/06/17 22:47:02;;;;;;;14.30;12.80;;;;;;;24.31;59.51;98625.44;5024968;28;20036;-66
2021/06/17 22:49:27;;;;;;;13.48;12.05;;;;;;;24.24;59.30;98589.38;5024626;28;20018;-66
2021/06/17 22:51:53;;;;;;;15.32;13.25;;;;;;;24.51;59.18;98621.56;5034757;28;20101;-66
2021/06/17 22:54:23;;;;;;;13.77;12.38;;;;;;;24.48;59.15;98622.84;5039168;28;20095;-66
2021/06/17 22:56:52;;;;;;;14.05;12.65;;;;;;;24.40;59.45;98611.78;5025096;28;20766;-66
2021/06/17 22:59:18;;;;;;;15.40;12.97;;;;;;;24.27;59.97;98618.16;5037475;28;20044;-65
2021/06/17 23:01:44;;;;;;;15.07;13.27;;;;;;;24.01;60.51;98593.72;5018230;28;20257;-66
2021/06/17 23:04:09;;;;;;;14.57;13.07;;;;;;;24.21;60.71;98627.88;5026151;28;20704;-66
2021/06/17 23:06:35;;;;;;;15.93;13.20;;;;;;;24.11;61.00;98625.81;5029249;28;20030;-66
2021/06/17 23:09:00;;;;;;;14.63;13.18;;;;;;;24.11;60.51;98609.88;5039460;28;20037;-66
2021/06/17 23:11:25;;;;;;;15.07;13.65;;;;;;;24.06;60.43;98598.31;5015337;28;20600;-66
2021/06/17 23:13:51;;;;;;;15.32;13.75;;;;;;;24.17;60.59;98621.41;5025934;28;20033;-65
2021/06/17 23:16:16;;;;;;;14.57;13.00;;;;;;;24.14;60.60;98625.31;5041027;28;20025;-66
2021/06/17 23:18:42;;;;;;;15.30;13.75;;;;;;;23.87;61.22;98605.59;5024372;28;20041;-66
2021/06/17 23:21:08;;;;;;;14.88;13.38;;;;;;;24.12;60.77;98621.28;5026004;28;20643;-66
2021/06/17 23:23:34;;;;;;;14.32;12.82;;;;;;;24.04;60.62;98613.66;5028258;28;20460;-66
2021/06/17 23:26:00;;;;;;;13.77;12.43;;;;;;;24.10;60.02;98618.88;5041033;28;20053;-66
2021/06/17 23:28:25;;;;;;;13.77;12.27;;;;;;;24.03;59.96;98618.19;5021666;28;20685;-65
2021/06/17 23:30:50;;;;;;;13.55;12.15;;;;;;;23.95;60.19;98619.34;5039315;28;20542;-66
2021/06/17 23:33:16;;;;;;;15.30;12.23;;;;;;;23.87;60.62;98613.56;5020252;28;20044;-67
2021/06/17 23:35:41;;;;;;;14.55;12.45;;;;;;;23.75;60.46;98594.97;5040349;28;20527;-66
2021/06/17 23:38:07;;;;;;;14.60;13.07;;;;;;;24.05;60.41;98620.59;5021151;28;20465;-66
2021/06/17 23:40:32;;;;;;;14.63;13.23;;;;;;;23.93;60.65;98625.91;5022306;28;20026;-66
2021/06/17 23:42:58;;;;;;;15.13;13.52;;;;;;;23.73;60.96;98599.66;5026211;28;20092;-66
2021/06/17 23:45:25;;;;;;;14.25;12.70;;;;;;;23.91;60.59;98626.16;5025725;28;20033;-65
2021/06/17 23:47:50;;;;;;;13.60;12.20;;;;;;;23.86;60.15;98619.91;5024285;28;20026;-66
2021/06/17 23:50:19;;;;;;;14.00;12.60;;;;;;;23.52;60.66;98587.78;5025405;28;20399;-66
2021/06/17 23:52:45;;;;;;;16.92;13.75;;;;;;;23.55;61.16;98612.03;5042861;28;20040;-66
2021/06/17 23:55:11;;;;;;;14.85;13.10;;;;;;;23.61;61.17;98627.03;5019406;28;20038;-66
2021/06/17 23:57:37;;;;;;;15.40;13.57;;;;;;;23.65;60.82;98616.75;5019217;28;20140;-66
